createdAt,value
2023-05-23T00:02:02.183Z,13.23
2023-05-23T00:04:29.235Z,13.19
2023-05-23T00:06:56.723Z,13.25
2023-05-23T00:09:23.750Z,13.23
2023-05-23T00:11:50.626Z,13.16
2023-05-23T00:14:18.103Z,13.14
2023-05-23T00:19:16.746Z,13.06
2023-05-23T00:21:51.553Z,13.01
2023-05-23T00:24:19.107Z,13.01
2023-05-23T00:26:46.743Z,13.05
2023-05-23T00:29:16.651Z,12.99
2023-05-23T00:31:47.842Z,12.99
2023-05-23T00:34:20.295Z,12.88
2023-05-23T00:36:50.733Z,12.78
2023-05-23T00:39:20.987Z,12.69
2023-05-23T00:41:52.238Z,12.64
2023-05-23T00:44:20.689Z,12.62
2023-05-23T00:46:52.893Z,12.62
2023-05-23T00:49:20.817Z,12.54
2023-05-23T00:51:49.933Z,12.57
2023-05-23T00:54:40.893Z,12.44
2023-05-23T00:57:07.893Z,12.43
2023-05-23T00:59:37.426Z,12.43
2023-05-23T01:02:04.564Z,12.37
2023-05-23T01:04:34.508Z,12.28
2023-05-23T01:07:02.027Z,12.23
2023-05-23T01:09:29.735Z,12.23
2023-05-23T01:12:01.777Z,12.22
2023-05-23T01:15:06.713Z,12.28
2023-05-23T01:18:04.522Z,12.22
2023-05-23T01:20:49.582Z,12.11
2023-05-23T01:24:09.090Z,12.15
2023-05-23T01:26:58.582Z,12.16
2023-05-23T01:29:32.213Z,12.14
2023-05-23T01:32:01.152Z,12.09
2023-05-23T01:34:29.386Z,11.99
2023-05-23T01:36:56.715Z,12.05
2023-05-23T01:39:24.417Z,12.05
2023-05-23T01:41:53.419Z,12.02
2023-05-23T01:44:21.658Z,12.04
2023-05-23T01:46:49.078Z,12.01
2023-05-23T01:49:17.763Z,11.99
2023-05-23T01:51:46.073Z,11.96
2023-05-23T01:54:14.667Z,11.93
2023-05-23T01:56:43.257Z,12.01
2023-05-23T01:59:10.198Z,11.97
2023-05-23T02:01:38.901Z,11.81
2023-05-23T02:04:05.858Z,11.84
2023-05-23T02:06:32.865Z,11.84
2023-05-23T02:08:59.960Z,11.85
2023-05-23T02:11:27.090Z,11.87
2023-05-23T02:13:53.941Z,11.92
2023-05-23T02:16:21.793Z,11.92
2023-05-23T02:18:49.429Z,11.93
2023-05-23T02:21:16.347Z,12.00
2023-05-23T02:23:43.214Z,12.00
2023-05-23T02:26:10.111Z,11.99
2023-05-23T02:28:37.550Z,11.96
2023-05-23T02:31:04.495Z,11.90
2023-05-23T02:33:31.425Z,11.97
2023-05-23T02:35:58.318Z,11.88
2023-05-23T02:38:27.030Z,11.88
2023-05-23T02:40:54.018Z,11.91
2023-05-23T02:43:20.992Z,11.92
2023-05-23T02:45:47.854Z,11.96
2023-05-23T02:48:14.764Z,12.02
2023-05-23T02:50:41.743Z,12.04
2023-05-23T02:53:08.596Z,12.06
2023-05-23T02:55:35.491Z,12.06
2023-05-23T02:58:05.904Z,12.11
2023-05-23T03:00:33.134Z,12.11
2023-05-23T03:03:00.161Z,12.13
2023-05-23T03:05:27.095Z,12.11
2023-05-23T03:07:54.908Z,12.16
2023-05-23T03:10:22.806Z,12.06
2023-05-23T03:12:49.683Z,12.20
2023-05-23T03:15:16.613Z,12.22
2023-05-23T03:17:43.615Z,12.18
2023-05-23T03:20:11.431Z,12.12
2023-05-23T03:22:38.348Z,12.20
2023-05-23T03:25:05.956Z,12.25
2023-05-23T03:27:32.824Z,12.30
2023-05-23T03:29:59.657Z,12.25
2023-05-23T03:32:26.652Z,12.25
2023-05-23T03:34:53.578Z,12.28
2023-05-23T03:37:20.440Z,12.30
2023-05-23T03:39:47.276Z,12.39
2023-05-23T03:42:14.127Z,12.43
2023-05-23T03:44:40.992Z,12.50
2023-05-23T03:47:07.824Z,12.57
2023-05-23T03:49:34.876Z,12.57
2023-05-23T03:52:01.726Z,12.51
2023-05-23T03:54:28.595Z,12.44
2023-05-23T03:56:55.632Z,12.54
2023-05-23T03:59:22.505Z,12.49
2023-05-23T04:01:49.341Z,12.47
2023-05-23T04:04:17.485Z,12.51
2023-05-23T04:06:44.700Z,12.58
2023-05-23T04:09:11.533Z,12.56
2023-05-23T04:11:38.369Z,12.61
2023-05-23T04:14:05.293Z,12.62
2023-05-23T04:16:33.572Z,12.68
2023-05-23T04:19:00.850Z,12.74
2023-05-23T04:21:28.608Z,12.76
2023-05-23T04:23:56.383Z,12.88
2023-05-23T04:26:23.323Z,12.97
2023-05-23T04:28:54.372Z,13.02
2023-05-23T04:31:22.600Z,13.05
2023-05-23T04:33:49.643Z,13.14
2023-05-23T04:36:17.060Z,13.22
2023-05-23T04:38:43.948Z,13.23
2023-05-23T04:41:10.886Z,13.36
2023-05-23T04:43:42.584Z,13.40
2023-05-23T04:46:10.399Z,13.39
2023-05-23T04:48:38.930Z,13.50
2023-05-23T04:51:09.021Z,13.64
2023-05-23T04:53:37.150Z,13.73
2023-05-23T04:56:04.170Z,13.77
2023-05-23T04:58:32.054Z,13.89
2023-05-23T05:00:59.025Z,13.93
2023-05-23T05:03:26.595Z,14.01
2023-05-23T05:05:53.973Z,14.17
2023-05-23T05:08:20.831Z,14.15
2023-05-23T05:10:47.950Z,14.18
2023-05-23T05:13:14.988Z,14.31
2023-05-23T05:15:42.732Z,14.30
2023-05-23T05:18:09.683Z,14.44
2023-05-23T05:20:36.575Z,14.56
2023-05-23T05:23:03.575Z,14.73
2023-05-23T05:25:32.503Z,14.90
2023-05-23T05:28:06.199Z,15.11
2023-05-23T05:30:36.947Z,15.21
2023-05-23T05:33:05.395Z,15.37
2023-05-23T05:35:32.794Z,15.51
2023-05-23T05:38:00.971Z,15.62
2023-05-23T05:40:27.833Z,15.77
2023-05-23T05:42:54.700Z,15.91
2023-05-23T05:45:21.557Z,16.04
2023-05-23T05:47:48.461Z,16.17
2023-05-23T05:50:15.510Z,16.20
2023-05-23T05:52:42.583Z,16.26
2023-05-23T05:55:11.694Z,16.42
2023-05-23T05:57:40.100Z,16.46
2023-05-23T06:00:15.131Z,16.59
2023-05-23T06:02:51.696Z,16.61
2023-05-23T06:05:19.081Z,16.57
2023-05-23T06:07:50.092Z,16.65
2023-05-23T06:10:17.145Z,16.72
2023-05-23T06:12:45.784Z,16.78
2023-05-23T06:15:14.858Z,16.82
2023-05-23T06:17:42.574Z,16.81
2023-05-23T06:20:10.108Z,16.89
2023-05-23T06:22:37.411Z,16.82
2023-05-23T06:25:06.991Z,17.07
2023-05-23T06:27:33.933Z,16.97
2023-05-23T06:30:00.869Z,17.00
2023-05-23T06:32:27.776Z,17.05
2023-05-23T06:34:54.667Z,17.25
2023-05-23T06:37:21.588Z,17.42
2023-05-23T06:39:48.496Z,17.40
2023-05-23T06:42:16.701Z,17.36
2023-05-23T06:44:43.663Z,17.25
2023-05-23T06:47:10.683Z,17.32
2023-05-23T06:49:37.672Z,17.38
2023-05-23T06:52:04.829Z,17.37
2023-05-23T06:54:31.823Z,17.43
2023-05-23T06:56:58.741Z,17.52
2023-05-23T06:59:25.843Z,17.32
2023-05-23T07:01:52.733Z,17.22
2023-05-23T07:04:19.643Z,17.36
2023-05-23T07:06:46.726Z,17.26
2023-05-23T07:09:13.848Z,17.30
2023-05-23T07:11:41.398Z,17.18
2023-05-23T07:14:08.288Z,17.25
2023-05-23T07:16:35.260Z,17.02
2023-05-23T07:19:03.649Z,17.00
2023-05-23T07:21:31.182Z,17.00
2023-05-23T07:23:58.090Z,16.96
2023-05-23T07:26:24.997Z,17.06
2023-05-23T07:28:51.914Z,16.93
2023-05-23T07:31:19.135Z,17.13
2023-05-23T07:33:46.083Z,17.15
2023-05-23T07:36:13.001Z,17.11
2023-05-23T07:38:39.990Z,17.14
2023-05-23T07:41:11.983Z,17.08
2023-05-23T07:43:39.929Z,17.16
2023-05-23T07:46:07.136Z,17.14
2023-05-23T07:48:34.152Z,17.18
2023-05-23T07:51:01.450Z,17.25
2023-05-23T07:53:28.406Z,17.40
2023-05-23T07:55:55.385Z,17.39
2023-05-23T07:58:23.428Z,17.47
2023-05-23T08:00:52.675Z,17.65
2023-05-23T08:03:20.098Z,17.87
2023-05-23T08:05:47.663Z,17.91
2023-05-23T08:08:14.642Z,18.09
2023-05-23T08:10:41.880Z,18.03
2023-05-23T08:13:11.742Z,17.98
2023-05-23T08:15:38.699Z,17.80
2023-05-23T08:18:06.183Z,17.84
2023-05-23T08:20:33.310Z,17.69
2023-05-23T08:23:01.337Z,17.76
2023-05-23T08:25:30.753Z,17.62
2023-05-23T08:28:01.558Z,17.59
2023-05-23T08:30:29.647Z,17.76
2023-05-23T08:35:48.004Z,17.88
2023-05-23T08:38:14.994Z,17.94
2023-05-23T08:40:50.928Z,17.92
2023-05-23T08:43:19.417Z,17.98
2023-05-23T08:45:47.296Z,18.06
2023-05-23T08:48:15.611Z,17.94
2023-05-23T08:50:47.504Z,18.01
2023-05-23T08:53:21.907Z,18.19
2023-05-23T08:55:51.493Z,17.96
2023-05-23T08:58:25.111Z,18.01
2023-05-23T09:00:53.924Z,17.92
2023-05-23T09:03:21.392Z,17.81
2023-05-23T09:05:50.281Z,17.75
2023-05-23T09:08:17.364Z,17.65
2023-05-23T09:10:44.293Z,17.82
2023-05-23T09:13:11.228Z,17.63
2023-05-23T09:15:38.916Z,17.80
2023-05-23T09:18:05.975Z,17.89
2023-05-23T09:20:33.948Z,17.69
2023-05-23T09:23:03.517Z,17.92
2023-05-23T09:25:30.697Z,17.88
2023-05-23T09:28:01.669Z,17.90
2023-05-23T09:30:28.865Z,17.83
2023-05-23T09:33:04.713Z,18.11
2023-05-23T09:35:32.793Z,18.09
2023-05-23T09:37:59.830Z,17.80
2023-05-23T09:40:32.357Z,18.11
2023-05-23T09:43:04.961Z,18.15
2023-05-23T09:45:33.253Z,18.14
2023-05-23T09:48:00.259Z,18.15
2023-05-23T09:50:34.428Z,17.94
2023-05-23T09:53:01.907Z,18.16
2023-05-23T09:55:28.933Z,18.27
2023-05-23T09:57:59.081Z,18.26
2023-05-23T10:00:26.236Z,18.38
2023-05-23T10:03:14.769Z,18.54
2023-05-23T10:05:53.880Z,18.57
2023-05-23T10:08:47.293Z,18.51
2023-05-23T10:11:14.095Z,18.44
2023-05-23T10:13:50.432Z,18.58
2023-05-23T10:17:00.411Z,18.76
2023-05-23T10:19:36.292Z,18.80
2023-05-23T10:22:07.607Z,18.79
2023-05-23T10:24:36.510Z,18.81
2023-05-23T10:27:04.211Z,18.98
2023-05-23T10:29:34.050Z,18.85
2023-05-23T10:32:19.989Z,18.63
2023-05-23T10:35:04.789Z,18.60
2023-05-23T10:37:48.811Z,18.57
2023-05-23T10:40:21.557Z,18.64
2023-05-23T10:43:19.242Z,18.82
2023-05-23T10:45:47.239Z,18.48
2023-05-23T10:48:28.976Z,18.65
2023-05-23T10:51:10.035Z,18.56
2023-05-23T10:53:39.776Z,18.48
2023-05-23T10:56:08.497Z,18.75
2023-05-23T10:58:39.048Z,18.85
2023-05-23T11:01:08.394Z,18.87
2023-05-23T11:03:39.235Z,18.73
2023-05-23T11:06:06.721Z,18.45
2023-05-23T11:08:48.380Z,18.48
2023-05-23T11:11:16.231Z,18.54
2023-05-23T11:13:57.081Z,18.37
2023-05-23T11:16:33.368Z,17.97
2023-05-23T11:19:18.874Z,17.98
2023-05-23T11:22:18.070Z,17.99
2023-05-23T11:25:12.476Z,18.28
2023-05-23T11:27:41.860Z,18.21
2023-05-23T11:30:16.068Z,18.36
2023-05-23T11:32:52.070Z,18.69
2023-05-23T11:35:19.493Z,18.66
2023-05-23T11:37:47.364Z,18.40
2023-05-23T11:40:27.337Z,18.82
2023-05-23T11:42:55.402Z,18.77
2023-05-23T11:45:27.195Z,19.01
2023-05-23T11:47:54.554Z,18.88
2023-05-23T11:50:21.855Z,19.14
2023-05-23T11:52:51.803Z,19.25
2023-05-23T11:55:23.484Z,19.49
2023-05-23T11:57:52.087Z,19.51
2023-05-23T12:00:19.901Z,19.81
2023-05-23T12:02:49.181Z,19.52
2023-05-23T12:05:16.855Z,19.66
2023-05-23T12:07:50.013Z,19.67
2023-05-23T12:10:18.382Z,19.47
2023-05-23T12:12:45.709Z,19.52
2023-05-23T12:15:13.644Z,19.40
2023-05-23T12:17:47.123Z,19.40
2023-05-23T12:20:17.137Z,19.61
2023-05-23T12:22:44.249Z,19.40
2023-05-23T12:25:11.561Z,19.53
2023-05-23T12:27:42.049Z,19.62
2023-05-23T12:30:16.545Z,19.34
2023-05-23T12:32:45.880Z,19.62
2023-05-23T12:35:15.312Z,19.65
2023-05-23T12:37:46.085Z,19.46
2023-05-23T12:40:19.971Z,19.68
2023-05-23T12:42:55.574Z,19.97
2023-05-23T12:45:37.093Z,20.01
2023-05-23T12:48:05.554Z,20.02
2023-05-23T12:50:32.535Z,20.28
2023-05-23T12:52:59.952Z,20.28
2023-05-23T12:55:26.858Z,20.36
2023-05-23T12:57:53.841Z,20.45
2023-05-23T13:00:22.057Z,20.18
2023-05-23T13:02:50.449Z,20.42
2023-05-23T13:05:17.764Z,20.39
2023-05-23T13:07:44.864Z,20.34
2023-05-23T13:10:12.053Z,20.23
2023-05-23T13:12:39.048Z,20.41
2023-05-23T13:15:07.311Z,20.32
2023-05-23T13:17:34.328Z,20.37
2023-05-23T13:20:02.083Z,20.50
2023-05-23T13:22:29.430Z,20.41
2023-05-23T13:24:56.669Z,20.38
2023-05-23T13:27:23.643Z,20.90
2023-05-23T13:29:50.655Z,20.81
2023-05-23T13:32:17.793Z,20.93
2023-05-23T13:34:44.697Z,21.28
2023-05-23T13:37:11.625Z,20.88
2023-05-23T13:39:38.597Z,20.86
2023-05-23T13:42:06.154Z,20.86
2023-05-23T13:44:33.109Z,20.97
2023-05-23T13:47:14.249Z,21.19
2023-05-23T13:49:42.463Z,20.98
2023-05-23T13:52:09.728Z,21.28
2023-05-23T13:54:36.946Z,21.39
2023-05-23T13:57:04.153Z,21.47
2023-05-23T13:59:31.130Z,21.64
2023-05-23T14:01:58.165Z,21.81
2023-05-23T14:04:25.325Z,21.95
2023-05-23T14:06:52.499Z,21.49
2023-05-23T14:09:22.254Z,21.55
2023-05-23T14:11:52.404Z,21.70
2023-05-23T14:14:19.539Z,21.57
2023-05-23T14:16:47.099Z,21.69
2023-05-23T14:19:14.211Z,21.48
2023-05-23T14:21:44.043Z,21.55
2023-05-23T14:24:12.046Z,21.47
2023-05-23T14:26:39.025Z,21.52
2023-05-23T14:29:05.968Z,21.06
2023-05-23T14:31:32.995Z,20.96
2023-05-23T14:33:59.952Z,21.33
2023-05-23T14:36:28.837Z,21.48
2023-05-23T14:38:55.914Z,21.25
2023-05-23T14:41:23.099Z,21.55
2023-05-23T14:43:50.134Z,21.64
2023-05-23T14:46:18.651Z,21.87
2023-05-23T14:48:45.731Z,21.61
2023-05-23T14:51:20.983Z,21.86
2023-05-23T14:53:57.763Z,21.43
2023-05-23T14:56:24.761Z,21.29
2023-05-23T14:58:51.876Z,21.25
2023-05-23T15:01:18.860Z,21.44
2023-05-23T15:03:46.310Z,21.78
2023-05-23T15:06:13.311Z,21.87
2023-05-23T15:08:41.521Z,21.94
2023-05-23T15:11:09.883Z,21.97
2023-05-23T15:13:36.873Z,21.87
2023-05-23T15:16:03.838Z,22.22
2023-05-23T15:18:40.382Z,22.42
2023-05-23T15:21:08.964Z,22.16
2023-05-23T15:23:36.055Z,22.23
2023-05-23T15:26:02.968Z,22.17
2023-05-23T15:28:29.889Z,22.36
2023-05-23T15:30:57.432Z,22.02
2023-05-23T15:33:24.413Z,22.11
2023-05-23T15:35:51.929Z,22.58
2023-05-23T15:38:20.145Z,22.77
2023-05-23T15:40:49.078Z,22.98
2023-05-23T15:43:16.092Z,23.13
2023-05-23T15:45:43.230Z,23.01
2023-05-23T15:48:10.267Z,23.16
2023-05-23T15:50:37.275Z,23.27
2023-05-23T15:53:04.334Z,23.47
2023-05-23T15:55:31.269Z,23.51
2023-05-23T15:57:58.156Z,23.76
2023-05-23T16:00:25.404Z,24.06
2023-05-23T16:02:52.371Z,24.21
2023-05-23T16:05:19.433Z,23.93
2023-05-23T16:07:46.364Z,23.61
2023-05-23T16:10:14.539Z,22.97
2023-05-23T16:12:41.444Z,22.25
2023-05-23T16:15:09.142Z,22.09
2023-05-23T16:17:36.068Z,21.60
2023-05-23T16:20:04.450Z,21.60
2023-05-23T16:22:31.553Z,21.57
2023-05-23T16:24:58.450Z,21.65
2023-05-23T16:27:25.367Z,21.75
2023-05-23T16:29:52.324Z,21.80
2023-05-23T16:32:19.250Z,21.25
2023-05-23T16:34:51.839Z,20.70
2023-05-23T16:37:21.150Z,20.28
2023-05-23T16:39:48.102Z,19.96
2023-05-23T16:42:15.272Z,20.13
2023-05-23T16:44:42.438Z,20.24
2023-05-23T16:47:09.410Z,20.46
2023-05-23T16:49:36.318Z,20.52
2023-05-23T16:52:03.437Z,20.18
2023-05-23T16:54:30.363Z,20.34
2023-05-23T16:56:58.486Z,20.45
2023-05-23T16:59:25.394Z,20.32
2023-05-23T17:01:52.415Z,20.24
2023-05-23T17:04:20.633Z,19.88
2023-05-23T17:06:47.630Z,20.06
2023-05-23T17:09:14.758Z,20.15
2023-05-23T17:11:41.700Z,20.33
2023-05-23T17:14:08.628Z,20.11
2023-05-23T17:16:35.621Z,20.09
2023-05-23T17:19:02.571Z,19.83
2023-05-23T17:21:29.582Z,19.88
2023-05-23T17:23:56.555Z,20.03
2023-05-23T17:26:23.518Z,19.67
2023-05-23T17:28:50.444Z,19.77
2023-05-23T17:31:18.452Z,19.49
2023-05-23T17:33:46.665Z,19.55
2023-05-23T17:36:13.685Z,19.31
2023-05-23T17:38:40.606Z,19.35
2023-05-23T17:41:08.061Z,19.41
2023-05-23T17:43:34.995Z,19.41
2023-05-23T17:46:01.904Z,19.19
2023-05-23T17:48:45.618Z,19.23
2023-05-23T17:51:14.075Z,19.14
2023-05-23T17:53:41.907Z,18.84
2023-05-23T17:56:09.660Z,19.00
2023-05-23T17:58:38.423Z,18.89
2023-05-23T18:01:06.290Z,18.93
2023-05-23T18:03:33.253Z,18.74
2023-05-23T18:06:00.273Z,18.75
2023-05-23T18:08:27.260Z,18.67
2023-05-23T18:10:54.178Z,18.41
2023-05-23T18:13:21.546Z,18.27
2023-05-23T18:15:48.472Z,18.28
2023-05-23T18:18:17.115Z,18.24
2023-05-23T18:20:44.618Z,18.18
2023-05-23T18:23:12.210Z,18.17
2023-05-23T18:25:39.169Z,18.19
2023-05-23T18:28:06.113Z,18.23
2023-05-23T18:30:33.823Z,18.33
2023-05-23T18:33:01.124Z,18.23
2023-05-23T18:35:28.462Z,18.02
2023-05-23T18:37:55.489Z,18.13
2023-05-23T18:40:24.280Z,18.00
2023-05-23T18:42:51.530Z,18.03
2023-05-23T18:45:18.480Z,17.93
2023-05-23T18:47:45.507Z,17.85
2023-05-23T18:50:13.561Z,17.96
2023-05-23T18:52:40.986Z,17.87
2023-05-23T18:55:08.831Z,17.80
2023-05-23T18:57:35.868Z,17.60
2023-05-23T19:00:04.933Z,17.55
2023-05-23T19:02:32.216Z,17.24
2023-05-23T19:04:59.205Z,17.36
2023-05-23T19:07:26.138Z,17.23
2023-05-23T19:09:53.070Z,17.23
2023-05-23T19:12:20.211Z,17.20
2023-05-23T19:14:47.318Z,17.26
2023-05-23T19:17:14.227Z,17.09
2023-05-23T19:19:41.186Z,16.94
2023-05-23T19:22:08.266Z,16.97
2023-05-23T19:24:35.220Z,16.86
2023-05-23T19:27:02.611Z,16.63
2023-05-23T19:29:29.602Z,16.62
2023-05-23T19:31:57.729Z,16.49
2023-05-23T19:34:24.693Z,16.60
2023-05-23T19:36:51.714Z,16.63
2023-05-23T19:39:18.715Z,16.42
2023-05-23T19:41:45.719Z,16.50
2023-05-23T19:44:13.407Z,16.38
2023-05-23T19:46:40.342Z,16.44
2023-05-23T19:49:10.916Z,16.38
2023-05-23T19:51:38.006Z,16.14
2023-05-23T19:54:05.146Z,16.20
2023-05-23T19:56:34.460Z,16.02
2023-05-23T19:59:01.559Z,15.91
2023-05-23T20:01:30.936Z,15.82
2023-05-23T20:03:58.000Z,15.59
2023-05-23T20:06:24.922Z,15.51
2023-05-23T20:08:51.867Z,15.38
2023-05-23T20:11:18.903Z,15.29
2023-05-23T20:13:46.029Z,15.51
2023-05-23T20:16:13.229Z,15.46
2023-05-23T20:18:42.905Z,15.50
2023-05-23T20:21:10.096Z,15.47
2023-05-23T20:23:37.069Z,15.30
2023-05-23T20:26:04.117Z,15.21
2023-05-23T20:28:31.194Z,15.10
2023-05-23T20:30:58.460Z,14.97
2023-05-23T20:33:25.492Z,14.80
2023-05-23T20:35:52.498Z,14.64
2023-05-23T20:38:20.218Z,14.48
2023-05-23T20:40:51.569Z,14.52
2023-05-23T20:43:20.713Z,14.47
2023-05-23T20:45:48.436Z,14.32
2023-05-23T20:48:16.740Z,14.19
2023-05-23T20:50:44.505Z,14.26
2023-05-23T20:53:11.493Z,14.30
2023-05-23T20:55:38.417Z,14.08
2023-05-23T20:58:05.365Z,14.12
2023-05-23T21:00:32.326Z,14.35
2023-05-23T21:02:59.381Z,14.22
2023-05-23T21:05:26.590Z,14.16
2023-05-23T21:07:54.578Z,14.18
2023-05-23T21:10:21.632Z,14.12
2023-05-23T21:12:50.926Z,14.10
2023-05-23T21:15:18.659Z,14.04
2023-05-23T21:17:45.947Z,14.02
2023-05-23T21:20:14.058Z,13.87
2023-05-23T21:22:41.437Z,13.77
2023-05-23T21:25:08.893Z,13.85
2023-05-23T21:27:36.079Z,13.95
2023-05-23T21:30:04.447Z,13.92
2023-05-23T21:32:31.565Z,13.85
2023-05-23T21:34:58.694Z,13.70
2023-05-23T21:37:25.663Z,13.79
2023-05-23T21:39:52.855Z,13.67
2023-05-23T21:42:21.232Z,13.67
2023-05-23T21:44:48.454Z,13.46
2023-05-23T21:47:15.344Z,13.52
2023-05-23T21:49:42.374Z,13.32
2023-05-23T21:52:09.376Z,13.37
2023-05-23T21:54:36.470Z,13.30
2023-05-23T21:57:03.511Z,13.21
2023-05-23T21:59:30.511Z,12.98
2023-05-23T22:01:58.177Z,13.09
2023-05-23T22:04:25.136Z,12.98
2023-05-23T22:06:52.655Z,13.03
2023-05-23T22:09:19.700Z,13.02
2023-05-23T22:11:46.657Z,12.95
2023-05-23T22:14:13.570Z,12.92
2023-05-23T22:16:40.708Z,12.98
2023-05-23T22:19:12.714Z,13.01
2023-05-23T22:21:39.767Z,12.89
2023-05-23T22:24:06.933Z,12.96
2023-05-23T22:26:33.896Z,12.93
2023-05-23T22:29:01.016Z,12.88
2023-05-23T22:31:29.179Z,12.87
2023-05-23T22:33:56.391Z,12.77
2023-05-23T22:36:23.618Z,12.86
2023-05-23T22:38:50.824Z,12.85
2023-05-23T22:41:17.878Z,12.78
2023-05-23T22:43:44.862Z,12.77
2023-05-23T22:46:11.825Z,12.85
2023-05-23T22:48:39.291Z,12.89
2023-05-23T22:51:08.134Z,12.71
2023-05-23T22:53:35.088Z,12.83
2023-05-23T22:56:02.711Z,12.88
2023-05-23T22:58:29.603Z,12.83
2023-05-23T23:00:56.671Z,12.71
2023-05-23T23:03:23.631Z,12.84
2023-05-23T23:05:50.924Z,12.82
2023-05-23T23:08:19.561Z,12.76
2023-05-23T23:10:46.764Z,12.64
2023-05-23T23:13:16.673Z,12.76
2023-05-23T23:15:44.114Z,12.74
2023-05-23T23:18:13.895Z,12.63
2023-05-23T23:20:41.746Z,12.41
2023-05-23T23:23:08.878Z,12.38
2023-05-23T23:25:36.688Z,12.53
2023-05-23T23:28:03.802Z,12.68
2023-05-23T23:30:30.755Z,12.69
2023-05-23T23:32:57.701Z,12.59
2023-05-23T23:35:24.701Z,12.56
2023-05-23T23:37:51.643Z,12.61
2023-05-23T23:40:18.574Z,12.70
2023-05-23T23:42:45.451Z,12.64
2023-05-23T23:45:12.396Z,12.73
2023-05-23T23:47:39.385Z,12.83
2023-05-23T23:50:07.486Z,12.86
2023-05-23T23:52:37.391Z,12.86
2023-05-23T23:55:04.935Z,12.95
2023-05-23T23:57:31.950Z,13.12
2023-05-23T23:59:58.897Z,12.98
